Time;durP1;ratioP1;P1;durP2;ratioP2;P2;SDS_P1;SDS_P2;PMS_P1;PMS_P2;Temp;Humidity;BMP_temperature;BMP_pressure;BME280_temperature;BME280_humidity;BME280_pressure;Samples;Min_cycle;Max_cycle;Signal;HPM_P1;HPM_P2
2022/01/05 00:01:00;;;;;;;0.40;0.30;;;;;;;4.71;100.00;99103.06;5051477;28;20442;-76
2022/01/05 00:03:27;;;;;;;0.40;0.30;;;;;;;4.68;100.00;99109.03;5051448;28;20469;-76
2022/01/05 00:05:53;;;;;;;0.40;0.30;;;;;;;4.66;100.00;99103.16;5051467;28;20453;-76
2022/01/05 00:08:24;;;;;;;0.40;0.30;;;;;;;4.70;100.00;99108.75;5051124;28;20476;-76
2022/01/05 00:10:52;;;;;;;0.40;0.30;;;;;;;4.68;100.00;99117.06;5051335;28;20431;-77
2022/01/05 00:13:19;;;;;;;0.40;0.30;;;;;;;4.70;100.00;99117.56;5050299;28;20466;-72
2022/01/05 00:15:45;;;;;;;0.50;0.40;;;;;;;4.69;100.00;99110.63;5050967;28;20942;-71
2022/01/05 00:18:12;;;;;;;0.40;0.27;;;;;;;4.64;100.00;99112.59;5051235;28;20465;-70
2022/01/05 00:20:38;;;;;;;0.40;0.30;;;;;;;4.58;100.00;99111.91;5051267;28;20789;-71
2022/01/05 00:23:05;;;;;;;0.40;0.30;;;;;;;4.58;100.00;99108.44;5051117;28;20462;-73
2022/01/05 00:25:31;;;;;;;0.40;0.20;;;;;;;4.58;100.00;99109.22;5051216;28;20447;-75
2022/01/05 00:27:59;;;;;;;0.40;0.20;;;;;;;4.57;100.00;99115.69;5050985;28;20458;-75
2022/01/05 00:30:26;;;;;;;0.40;0.20;;;;;;;4.60;100.00;99116.97;5051118;28;20426;-75
2022/01/05 00:32:52;;;;;;;0.40;0.20;;;;;;;4.58;100.00;99117.28;5051042;28;20509;-75
2022/01/05 00:35:19;;;;;;;0.40;0.20;;;;;;;4.57;100.00;99107.63;5051104;28;20442;-75
2022/01/05 00:37:45;;;;;;;0.40;0.23;;;;;;;4.60;100.00;99107.03;5050816;28;20947;-74
2022/01/05 00:40:12;;;;;;;2.83;2.60;;;;;;;4.61;100.00;99103.28;5050898;28;20523;-74
2022/01/05 00:42:38;;;;;;;0.53;0.53;;;;;;;4.62;100.00;99104.06;5050794;28;20482;-75
2022/01/05 00:45:07;;;;;;;0.40;0.20;;;;;;;4.62;100.00;99104.06;5050883;28;20447;-75
2022/01/05 00:47:34;;;;;;;0.40;0.30;;;;;;;4.53;100.00;99114.69;5050821;28;20442;-75
2022/01/05 00:50:00;;;;;;;0.40;0.20;;;;;;;4.58;100.00;99114.59;5050836;28;20442;-75
2022/01/05 00:52:27;;;;;;;0.40;0.20;;;;;;;4.58;100.00;99109.22;5050596;28;20494;-75
2022/01/05 00:54:53;;;;;;;0.40;0.20;;;;;;;4.60;100.00;99107.03;5050719;28;20445;-75
2022/01/05 00:57:19;;;;;;;0.40;0.30;;;;;;;4.62;100.00;99107.53;5050730;28;20442;-75
2022/01/05 00:59:46;;;;;;;0.40;0.20;;;;;;;4.59;100.00;99104.66;5050646;28;20453;-75
2022/01/05 01:02:14;;;;;;;0.40;0.20;;;;;;;4.60;100.00;99098.19;5050492;28;20465;-74
2022/01/05 01:04:40;;;;;;;0.40;0.20;;;;;;;4.60;100.00;99100.88;5050583;28;20445;-75
2022/01/05 01:07:06;;;;;;;0.40;0.23;;;;;;;4.61;100.00;99097.91;5050535;28;20502;-75
2022/01/05 01:09:33;;;;;;;0.40;0.23;;;;;;;4.60;100.00;99098.97;5050476;28;20473;-75
2022/01/05 01:11:59;;;;;;;0.60;0.60;;;;;;;4.65;100.00;99098.91;5050365;28;20490;-75
2022/01/05 01:14:26;;;;;;;0.40;0.20;;;;;;;4.67;100.00;99098.59;5050345;28;20462;-75
2022/01/05 01:16:52;;;;;;;0.40;0.20;;;;;;;4.74;100.00;99099.78;5050376;28;20453;-75
2022/01/05 01:19:20;;;;;;;0.40;0.20;;;;;;;4.77;100.00;99109.91;5050089;28;20947;-75
2022/01/05 01:21:47;;;;;;;0.40;0.30;;;;;;;4.80;100.00;99111.22;5050360;28;20439;-75
2022/01/05 01:24:13;;;;;;;0.40;0.23;;;;;;;4.78;100.00;99113.38;5050036;28;20466;-75
2022/01/05 01:26:40;;;;;;;0.40;0.30;;;;;;;4.83;100.00;99107.16;5051367;28;20435;-75
2022/01/05 01:29:06;;;;;;;0.40;0.23;;;;;;;4.83;100.00;99107.94;5049884;28;20473;-75
2022/01/05 01:31:32;;;;;;;0.40;0.20;;;;;;;4.87;100.00;99111.63;5050127;28;20490;-75
2022/01/05 01:33:59;;;;;;;0.40;0.20;;;;;;;4.89;100.00;99111.31;5050141;28;20467;-75
2022/01/05 01:36:26;;;;;;;0.40;0.20;;;;;;;4.86;100.00;99123.41;5050257;28;20434;-75
2022/01/05 01:38:53;;;;;;;0.40;0.20;;;;;;;4.85;100.00;99121.03;5050098;28;20451;-75
2022/01/05 01:41:19;;;;;;;0.40;0.20;;;;;;;4.83;100.00;99109.81;5050121;28;20439;-74
2022/01/05 01:43:46;;;;;;;0.40;0.30;;;;;;;4.85;100.00;99102.25;5050025;28;20476;-74
2022/01/05 01:46:12;;;;;;;0.40;0.20;;;;;;;4.88;100.00;99096.31;5050034;28;20445;-74
2022/01/05 01:48:40;;;;;;;0.40;0.20;;;;;;;4.87;100.00;99100.88;5050085;28;20792;-74
2022/01/05 01:51:06;;;;;;;0.40;0.30;;;;;;;4.85;100.00;99094.22;5049956;28;20494;-74
2022/01/05 01:53:34;;;;;;;0.40;0.30;;;;;;;4.86;100.00;99095.81;5049781;28;20490;-75
2022/01/05 01:56:03;;;;;;;0.40;0.20;;;;;;;4.87;100.00;99100.06;5049931;28;20438;-74
2022/01/05 01:58:34;;;;;;;0.40;0.30;;;;;;;4.90;100.00;99089.53;5049603;28;20955;-74
2022/01/05 02:01:02;;;;;;;0.40;0.30;;;;;;;4.88;100.00;99075.63;5049929;28;20438;-74
2022/01/05 02:03:28;;;;;;;0.40;0.27;;;;;;;4.88;100.00;99080.22;5049759;28;20481;-74
2022/01/05 02:05:55;;;;;;;0.40;0.23;;;;;;;4.84;100.00;99076.53;5049803;28;20451;-74
2022/01/05 02:08:21;;;;;;;0.40;0.30;;;;;;;4.82;100.00;99084.88;5049510;28;20816;-74
2022/01/05 02:10:49;;;;;;;0.40;0.30;;;;;;;4.84;100.00;99084.59;5049488;28;20450;-74
2022/01/05 02:13:16;;;;;;;0.40;0.23;;;;;;;4.89;100.00;99081.78;5049603;28;20577;-75
2022/01/05 02:15:42;;;;;;;0.40;0.20;;;;;;;4.92;100.00;99092.72;5049680;28;20442;-75
2022/01/05 02:18:57;;;;;;;0.40;0.20;;;;;;;4.93;100.00;99086.25;5049696;28;20470;-75
2022/01/05 02:21:00;;;;;;;0.40;0.27;;;;;;;4.93;100.00;99093.53;5049191;28;20438;-75
2022/01/05 02:23:27;;;;;;;0.40;0.30;;;;;;;4.89;100.00;99087.16;5049502;28;20459;-75
2022/01/05 02:25:54;;;;;;;0.40;0.30;;;;;;;4.95;100.00;99096.69;5049272;28;20797;-75
2022/01/05 02:28:21;;;;;;;0.40;0.30;;;;;;;4.95;100.00;99100.16;5049294;28;20839;-75
2022/01/05 02:30:51;;;;;;;0.40;0.30;;;;;;;5.01;100.00;99112.38;5049419;28;20857;-76
2022/01/05 02:33:17;;;;;;;0.40;0.30;;;;;;;4.99;100.00;99113.78;5049319;28;20490;-75
2022/01/05 02:35:44;;;;;;;0.40;0.30;;;;;;;4.99;100.00;99113.78;5049992;28;20446;-75
2022/01/05 02:38:12;;;;;;;0.40;0.20;;;;;;;4.93;99.20;99109.63;5052565;28;20449;-75
2022/01/05 02:40:39;;;;;;;0.40;0.20;;;;;;;4.95;99.68;99105.53;5053207;28;20469;-76
2022/01/05 02:43:05;;;;;;;0.40;0.30;;;;;;;4.98;99.92;99109.50;5053131;28;20535;-76
2022/01/05 02:45:31;;;;;;;0.40;0.30;;;;;;;4.95;100.00;99107.41;5052532;28;20966;-75
2022/01/05 02:47:58;;;;;;;0.40;0.30;;;;;;;4.95;100.00;99107.41;5052713;28;20487;-74
2022/01/05 02:50:24;;;;;;;0.40;0.30;;;;;;;4.98;100.00;99101.47;5052653;28;20449;-74
2022/01/05 02:52:51;;;;;;;0.40;0.20;;;;;;;4.97;99.87;99095.31;5052510;28;20489;-74
2022/01/05 02:55:18;;;;;;;0.40;0.30;;;;;;;4.94;99.22;99105.84;5052624;28;20458;-74
2022/01/05 02:57:45;;;;;;;0.40;0.23;;;;;;;4.86;99.19;99115.38;5052560;28;20446;-74
2022/01/05 03:00:14;;;;;;;0.40;0.20;;;;;;;4.85;99.16;99113.78;5052495;28;20470;-75
2022/01/05 03:02:41;;;;;;;0.40;0.30;;;;;;;4.85;98.92;99108.41;5052445;28;20458;-74
2022/01/05 03:05:08;;;;;;;0.40;0.30;;;;;;;4.85;98.94;99113.00;5052116;28;20450;-74
2022/01/05 03:07:39;;;;;;;0.40;0.20;;;;;;;4.86;99.01;99118.06;5052410;28;20442;-74
2022/01/05 03:10:07;;;;;;;0.40;0.30;;;;;;;4.87;98.93;99119.66;5052097;28;20431;-75
2022/01/05 03:12:35;;;;;;;0.40;0.30;;;;;;;4.83;99.10;99115.97;5052202;28;20486;-75
2022/01/05 03:15:01;;;;;;;0.90;0.90;;;;;;;4.83;99.01;99109.81;5052302;28;20502;-75
2022/01/05 03:17:28;;;;;;;0.40;0.30;;;;;;;4.84;99.33;99100.69;5052337;28;20523;-75
2022/01/05 03:19:54;;;;;;;0.40;0.30;;;;;;;4.86;99.58;99087.75;5052232;28;20454;-75
2022/01/05 03:22:21;;;;;;;0.40;0.20;;;;;;;4.86;99.31;99085.84;5052104;28;20538;-75
2022/01/05 03:24:47;;;;;;;0.40;0.30;;;;;;;4.90;98.94;99086.06;5052172;28;20447;-75
2022/01/05 03:27:14;;;;;;;0.40;0.30;;;;;;;4.90;99.16;99088.75;5052091;28;20470;-75
2022/01/05 03:29:41;;;;;;;0.40;0.27;;;;;;;4.93;99.12;99090.84;5051749;28;20451;-75
2022/01/05 03:32:08;;;;;;;0.40;0.30;;;;;;;4.96;98.66;99084.88;5051881;28;20445;-75
2022/01/05 03:34:36;;;;;;;0.40;0.20;;;;;;;4.94;98.91;99089.72;5052005;28;20438;-75
2022/01/05 03:37:03;;;;;;;0.40;0.20;;;;;;;4.97;99.04;99092.63;5051937;28;20442;-75
2022/01/05 03:39:30;;;;;;;0.40;0.20;;;;;;;5.00;98.71;99100.06;5052003;28;20523;-75
2022/01/05 03:41:56;;;;;;;0.40;0.23;;;;;;;5.03;98.41;99094.09;5051873;28;20446;-75
2022/01/05 03:44:23;;;;;;;0.40;0.30;;;;;;;5.00;98.42;99099.25;5051836;28;20462;-75
2022/01/05 03:46:51;;;;;;;0.40;0.20;;;;;;;5.02;98.45;99092.50;5051827;28;20453;-75
2022/01/05 03:49:17;;;;;;;0.40;0.23;;;;;;;5.05;98.30;99096.50;5051776;28;20470;-72
2022/01/05 03:51:45;;;;;;;0.40;0.30;;;;;;;5.07;97.81;99102.34;5051708;28;20449;-71
2022/01/05 03:54:12;;;;;;;0.40;0.30;;;;;;;5.05;97.54;99099.16;5051250;28;21067;-71
2022/01/05 03:56:38;;;;;;;0.40;0.27;;;;;;;5.05;96.97;99101.84;5051361;28;20824;-75
2022/01/05 03:59:05;;;;;;;0.40;0.20;;;;;;;5.02;96.67;99116.66;5051641;28;20442;-76
2022/01/05 04:01:31;;;;;;;0.40;0.30;;;;;;;5.03;97.03;99106.72;5051599;28;20492;-75
2022/01/05 04:03:59;;;;;;;0.40;0.20;;;;;;;5.02;98.06;99113.19;5051427;28;20473;-75
2022/01/05 04:06:25;;;;;;;0.40;0.20;;;;;;;5.04;97.79;99108.28;5051574;28;20451;-75
2022/01/05 04:08:52;;;;;;;0.40;0.20;;;;;;;5.05;97.71;99116.06;5051144;28;20954;-75
2022/01/05 04:11:18;;;;;;;0.40;0.30;;;;;;;5.06;97.26;99119.53;5051479;28;20442;-75
2022/01/05 04:13:45;;;;;;;0.40;0.30;;;;;;;5.06;97.16;99114.97;5051284;28;20493;-75
2022/01/05 04:16:11;;;;;;;0.40;0.30;;;;;;;5.07;97.27;99116.53;5051310;28;20450;-75
2022/01/05 04:18:37;;;;;;;0.40;0.20;;;;;;;5.12;96.93;99102.22;5051049;28;20970;-75
2022/01/05 04:21:05;;;;;;;0.40;0.30;;;;;;;5.11;96.24;99116.75;5051340;28;20438;-75
2022/01/05 04:23:32;;;;;;;0.40;0.20;;;;;;;5.07;95.90;99121.13;5051224;28;20466;-75
2022/01/05 04:25:58;;;;;;;0.40;0.30;;;;;;;5.13;96.46;99119.13;5051410;28;20469;-75
2022/01/05 04:28:24;;;;;;;0.40;0.30;;;;;;;5.12;97.19;99109.47;5050843;28;20462;-75
2022/01/05 04:30:51;;;;;;;0.40;0.30;;;;;;;5.10;97.50;99117.06;5051186;28;20441;-75
2022/01/05 04:33:17;;;;;;;0.40;0.30;;;;;;;5.15;97.37;99125.78;5051042;28;20490;-75
2022/01/05 04:35:44;;;;;;;0.40;0.30;;;;;;;5.16;96.77;99122.00;5051160;28;20493;-75
2022/01/05 04:38:11;;;;;;;0.40;0.30;;;;;;;5.18;96.19;99129.75;5051028;28;20861;-75
2022/01/05 04:40:38;;;;;;;0.40;0.30;;;;;;;5.16;96.27;99121.22;5050875;28;20936;-75
2022/01/05 04:43:04;;;;;;;0.40;0.20;;;;;;;5.17;95.83;99120.88;5051183;28;20465;-75
2022/01/05 04:45:31;;;;;;;0.40;0.30;;;;;;;5.14;94.98;99121.50;5051220;28;20496;-75
2022/01/05 04:47:57;;;;;;;0.40;0.20;;;;;;;5.05;95.87;99116.06;5051339;28;20446;-75
2022/01/05 04:50:24;;;;;;;0.40;0.30;;;;;;;5.11;96.38;99100.63;5050809;28;20445;-75
2022/01/05 04:52:50;;;;;;;0.40;0.30;;;;;;;5.05;96.27;99107.22;5050677;28;20493;-75
2022/01/05 04:55:18;;;;;;;0.40;0.30;;;;;;;5.05;96.20;99131.38;5050746;28;20446;-74
2022/01/05 04:57:44;;;;;;;0.40;0.20;;;;;;;5.09;96.19;99140.41;5050678;28;20439;-74
2022/01/05 05:00:11;;;;;;;0.40;0.20;;;;;;;5.11;95.25;99126.69;5050102;28;20447;-74
2022/01/05 05:02:38;;;;;;;0.40;0.30;;;;;;;4.98;94.91;99128.28;5050562;28;20458;-74
2022/01/05 05:05:05;;;;;;;0.40;0.30;;;;;;;5.02;95.29;99131.97;5050552;28;20450;-74
2022/01/05 05:07:31;;;;;;;0.40;0.30;;;;;;;5.11;95.18;99127.47;5050642;28;20443;-74
2022/01/05 05:09:58;;;;;;;0.40;0.20;;;;;;;5.15;94.54;99136.53;5050549;28;20449;-74
2022/01/05 05:12:26;;;;;;;0.40;0.20;;;;;;;5.14;93.96;99132.25;5050048;28;20927;-75
2022/01/05 05:14:52;;;;;;;0.40;0.30;;;;;;;5.14;93.60;99116.16;5050472;28;20439;-75
2022/01/05 05:17:19;;;;;;;0.40;0.30;;;;;;;5.14;93.63;99113.47;5050439;28;20446;-74
2022/01/05 05:19:45;;;;;;;0.40;0.20;;;;;;;5.09;93.05;99118.94;5050400;28;20442;-73
2022/01/05 05:22:11;;;;;;;0.40;0.30;;;;;;;5.06;92.96;99108.81;5050002;28;20453;-74
2022/01/05 05:24:38;;;;;;;0.40;0.20;;;;;;;5.00;93.72;99112.66;5050262;28;20442;-75
2022/01/05 05:27:05;;;;;;;0.40;0.30;;;;;;;5.00;94.04;99104.63;5050660;27;20862;-74
2022/01/05 05:29:33;;;;;;;0.40;0.23;;;;;;;4.95;93.31;99115.47;5050016;28;20461;-74
2022/01/05 05:31:59;;;;;;;0.40;0.30;;;;;;;4.90;93.63;99118.25;5050278;28;20446;-74
2022/01/05 05:34:26;;;;;;;0.40;0.20;;;;;;;4.89;93.25;99120.16;5050071;28;20481;-75
2022/01/05 05:36:52;;;;;;;0.40;0.20;;;;;;;4.90;94.15;99118.25;5050187;28;20446;-74
2022/01/05 05:39:19;;;;;;;0.40;0.27;;;;;;;4.89;94.79;99112.09;5050192;28;20455;-74
2022/01/05 05:41:46;;;;;;;0.40;0.30;;;;;;;4.91;94.79;99117.16;5050125;28;20438;-74
2022/01/05 05:44:12;;;;;;;0.40;0.20;;;;;;;4.79;94.73;99115.00;5049985;28;20465;-74
2022/01/05 05:46:40;;;;;;;0.40;0.20;;;;;;;4.83;95.48;99115.19;5050054;28;20446;-75
2022/01/05 05:49:06;;;;;;;0.40;0.20;;;;;;;4.86;95.26;99119.94;5050037;28;20443;-75
2022/01/05 05:51:33;;;;;;;0.40;0.20;;;;;;;4.80;95.61;99127.31;5049924;28;20438;-75
2022/01/05 05:53:59;;;;;;;0.40;0.23;;;;;;;4.75;94.80;99114.78;5049829;28;20493;-75
2022/01/05 05:56:26;;;;;;;0.40;0.20;;;;;;;4.73;94.29;99127.69;5049903;28;20442;-75
2022/01/05 05:58:52;;;;;;;0.40;0.30;;;;;;;4.70;94.70;99125.63;5049660;28;20887;-75
2022/01/05 06:01:19;;;;;;;0.40;0.20;;;;;;;4.64;95.37;99121.44;5049557;28;20947;-75
2022/01/05 06:03:47;;;;;;;0.40;0.23;;;;;;;4.66;95.52;99127.31;5049758;28;20465;-75
2022/01/05 06:06:13;;;;;;;0.40;0.20;;;;;;;4.65;95.69;99128.41;5049825;28;20445;-76
2022/01/05 06:08:40;;;;;;;0.40;0.20;;;;;;;4.58;96.35;99122.63;5049772;28;20495;-76
2022/01/05 06:11:06;;;;;;;0.40;0.20;;;;;;;4.58;95.60;99125.31;5050883;28;20445;-75
2022/01/05 06:13:33;;;;;;;0.40;0.20;;;;;;;4.55;95.42;99125.91;5053102;28;20482;-76
2022/01/05 06:16:00;;;;;;;0.40;0.20;;;;;;;4.52;95.35;99115.78;5053219;28;20454;-76
2022/01/05 06:18:26;;;;;;;0.40;0.30;;;;;;;4.49;96.36;99127.88;5053164;28;20445;-75
2022/01/05 06:20:54;;;;;;;0.40;0.20;;;;;;;4.48;96.11;99120.16;5053160;28;20453;-76
2022/01/05 06:23:20;;;;;;;0.40;0.30;;;;;;;4.43;95.97;99134.44;5053010;28;20466;-72
2022/01/05 06:25:47;;;;;;;0.40;0.20;;;;;;;4.44;96.65;99130.66;5053039;28;20445;-72
2022/01/05 06:28:13;;;;;;;0.40;0.30;;;;;;;4.42;96.81;99140.09;5052815;28;20450;-74
2022/01/05 06:30:41;;;;;;;0.40;0.30;;;;;;;4.35;96.61;99143.16;5052660;28;20976;-74
2022/01/05 06:33:08;;;;;;;0.40;0.20;;;;;;;4.32;96.63;99157.16;5052805;28;20863;-74
2022/01/05 06:35:35;;;;;;;0.40;0.20;;;;;;;4.29;97.01;99152.38;5052892;28;20814;-73
2022/01/05 06:38:03;;;;;;;0.40;0.20;;;;;;;4.23;98.07;99157.03;5052885;28;20442;-73
2022/01/05 06:40:29;;;;;;;0.40;0.20;;;;;;;4.19;98.26;99161.38;5052351;28;20931;-74
2022/01/05 06:42:56;;;;;;;0.40;0.20;;;;;;;4.19;98.71;99171.31;5052710;28;20462;-74
2022/01/05 06:45:22;;;;;;;0.40;0.30;;;;;;;4.19;98.51;99166.75;5052797;28;20446;-74
2022/01/05 06:47:49;;;;;;;0.40;0.30;;;;;;;4.18;97.90;99165.16;5052728;28;20446;-74
2022/01/05 06:50:15;;;;;;;0.40;0.30;;;;;;;4.19;98.31;99166.75;5052682;28;20446;-74
2022/01/05 06:52:42;;;;;;;0.40;0.20;;;;;;;4.16;98.43;99169.19;5052616;28;20869;-73
2022/01/05 06:55:10;;;;;;;0.40;0.30;;;;;;;4.11;98.45;99166.59;5052569;28;20494;-73
2022/01/05 06:57:39;;;;;;;0.40;0.20;;;;;;;4.13;98.20;99189.34;5052572;28;20451;-74
2022/01/05 07:00:07;;;;;;;0.40;0.30;;;;;;;4.17;98.52;99187.69;5052540;28;20540;-73
2022/01/05 07:02:34;;;;;;;0.40;0.20;;;;;;;4.15;98.59;99184.47;5052070;28;21083;-74
2022/01/05 07:05:00;;;;;;;0.40;0.30;;;;;;;4.15;97.80;99184.47;5052497;28;20446;-73
2022/01/05 07:07:27;;;;;;;0.40;0.30;;;;;;;4.11;98.33;99190.72;5052404;28;20514;-71
2022/01/05 07:09:53;;;;;;;0.40;0.20;;;;;;;4.06;98.81;99188.94;5052418;28;20438;-71
2022/01/05 07:12:21;;;;;;;0.40;0.30;;;;;;;4.10;98.11;99195.28;5052275;28;20442;-73
2022/01/05 07:14:47;;;;;;;0.40;0.27;;;;;;;4.05;98.52;99193.50;5052244;28;20477;-72
2022/01/05 07:17:14;;;;;;;0.40;0.30;;;;;;;4.06;97.69;99194.28;5052295;28;20442;-75
2022/01/05 07:19:40;;;;;;;0.40;0.30;;;;;;;4.08;97.54;99188.66;5052236;28;20454;-74
2022/01/05 07:22:06;;;;;;;0.40;0.30;;;;;;;4.07;98.18;99185.16;5051580;28;20450;-74
2022/01/05 07:24:33;;;;;;;0.40;0.20;;;;;;;4.12;98.34;99192.31;5052161;28;20811;-74
2022/01/05 07:26:59;;;;;;;0.40;0.30;;;;;;;4.15;97.11;99197.09;5053077;28;20822;-73
2022/01/05 07:29:27;;;;;;;0.40;0.30;;;;;;;4.14;96.93;99200.88;5051671;28;20469;-73
2022/01/05 07:31:53;;;;;;;0.40;0.20;;;;;;;4.15;96.47;99203.25;5052055;28;20438;-74
2022/01/05 07:34:20;;;;;;;0.40;0.30;;;;;;;4.12;96.15;99195.00;5051786;28;20486;-73
2022/01/05 07:36:46;;;;;;;0.40;0.30;;;;;;;4.14;96.04;99203.53;5052009;28;20452;-73
2022/01/05 07:39:13;;;;;;;0.40;0.30;;;;;;;4.13;95.79;99193.94;5051953;28;20446;-73
2022/01/05 07:41:40;;;;;;;0.40;0.30;;;;;;;4.10;95.48;99195.28;5051914;28;20442;-73
2022/01/05 07:44:07;;;;;;;0.40;0.30;;;;;;;4.09;95.50;99192.91;5051684;28;20489;-73
2022/01/05 07:46:35;;;;;;;0.40;0.20;;;;;;;4.10;95.29;99191.81;5051743;28;20442;-73
2022/01/05 07:49:03;;;;;;;0.40;0.20;;;;;;;4.10;95.77;99197.97;5051703;28;20450;-75
2022/01/05 07:51:29;;;;;;;0.40;0.30;;;;;;;4.08;94.67;99202.84;5051690;28;20439;-71
2022/01/05 07:53:56;;;;;;;0.40;0.30;;;;;;;4.09;93.53;99204.44;5051426;28;20573;-72
2022/01/05 07:56:22;;;;;;;0.40;0.30;;;;;;;4.11;93.71;99207.59;5051686;28;20457;-72
2022/01/05 07:58:49;;;;;;;0.40;0.30;;;;;;;4.07;93.25;99211.94;5051345;28;20935;-70
2022/01/05 08:01:18;;;;;;;0.40;0.30;;;;;;;4.06;93.01;99202.31;5051567;28;20461;-71
2022/01/05 08:03:46;;;;;;;0.40;0.30;;;;;;;4.07;92.93;99197.75;5051491;28;20471;-72
2022/01/05 08:06:12;;;;;;;0.40;0.30;;;;;;;4.04;94.11;99199.94;5049808;28;20464;-72
2022/01/05 08:08:39;;;;;;;0.40;0.30;;;;;;;4.03;93.72;99202.91;5051453;28;20445;-72
2022/01/05 08:11:05;;;;;;;0.40;0.30;;;;;;;4.00;93.30;99201.59;5051459;28;20442;-72
2022/01/05 08:13:31;;;;;;;0.40;0.23;;;;;;;4.04;93.77;99204.50;5051263;28;20469;-72
2022/01/05 08:15:58;;;;;;;0.40;0.20;;;;;;;4.06;92.44;99210.34;5051456;28;20445;-71
2022/01/05 08:18:24;;;;;;;0.40;0.30;;;;;;;4.04;93.10;99218.69;5051343;28;20446;-72
2022/01/05 08:20:52;;;;;;;0.40;0.30;;;;;;;4.04;92.35;99217.91;5051343;28;20499;-72
2022/01/05 08:23:20;;;;;;;0.40;0.20;;;;;;;4.01;92.59;99224.63;5050816;28;20515;-72
2022/01/05 08:25:47;;;;;;;0.40;0.30;;;;;;;4.04;92.47;99223.25;5050863;28;20449;-72
2022/01/05 08:28:15;;;;;;;0.40;0.30;;;;;;;4.10;92.31;99221.28;5050966;28;20450;-72
2022/01/05 08:30:44;;;;;;;0.40;0.30;;;;;;;4.09;91.46;99219.72;5051102;28;20451;-73
2022/01/05 08:33:11;;;;;;;0.40;0.20;;;;;;;4.11;90.27;99222.88;5050400;28;20458;-72
2022/01/05 08:35:38;;;;;;;0.40;0.20;;;;;;;4.09;90.85;99225.84;5050431;28;21013;-72
2022/01/05 08:38:06;;;;;;;0.40;0.30;;;;;;;4.11;90.54;99212.94;5050976;28;20451;-73
2022/01/05 08:40:35;;;;;;;0.40;0.30;;;;;;;4.11;89.97;99222.88;5050947;28;20450;-72
2022/01/05 08:43:04;;;;;;;0.40;0.20;;;;;;;4.13;89.50;99224.19;5050761;28;20471;-72
2022/01/05 08:45:31;;;;;;;0.40;0.20;;;;;;;4.17;90.27;99225.19;5050865;28;20442;-71
2022/01/05 08:47:59;;;;;;;0.40;0.20;;;;;;;4.20;89.41;99216.56;5050481;28;20817;-72
2022/01/05 08:50:27;;;;;;;0.40;0.30;;;;;;;4.23;89.60;99221.34;5050780;28;20498;-69
2022/01/05 08:52:56;;;;;;;0.40;0.30;;;;;;;4.26;89.12;99223.44;5050914;28;20462;-70
2022/01/05 08:55:27;;;;;;;0.40;0.20;;;;;;;4.28;88.79;99234.66;5050933;28;20486;-70
2022/01/05 08:57:53;;;;;;;0.40;0.30;;;;;;;4.27;89.03;99229.59;5050954;28;20534;-69
2022/01/05 09:00:20;;;;;;;0.40;0.30;;;;;;;4.26;88.19;99220.75;5050336;28;20934;-70
2022/01/05 09:02:46;;;;;;;0.40;0.30;;;;;;;4.27;87.70;99232.28;5050262;28;20518;-69
2022/01/05 09:05:14;;;;;;;0.40;0.23;;;;;;;4.27;87.45;99226.91;5050512;28;20453;-69
2022/01/05 09:07:40;;;;;;;0.40;0.20;;;;;;;4.31;86.20;99227.94;5050541;28;20454;-69
2022/01/05 09:10:07;;;;;;;0.40;0.30;;;;;;;4.36;85.60;99232.41;5050187;28;20943;-69
2022/01/05 09:12:35;;;;;;;0.40;0.30;;;;;;;4.39;87.06;99227.25;5050427;28;20466;-69
2022/01/05 09:15:02;;;;;;;0.40;0.30;;;;;;;4.42;86.49;99228.53;5050072;28;20895;-71
2022/01/05 09:17:29;;;;;;;0.40;0.30;;;;;;;4.52;85.67;99229.19;5050364;28;20442;-70
2022/01/05 09:19:56;;;;;;;0.40;0.30;;;;;;;4.59;85.19;99231.47;5050470;28;20446;-69
2022/01/05 09:22:23;;;;;;;0.40;0.30;;;;;;;4.70;84.24;99229.44;5050209;28;20446;-70
2022/01/05 09:24:49;;;;;;;0.40;0.23;;;;;;;4.75;83.85;99242.75;5050339;28;20449;-71
2022/01/05 09:27:16;;;;;;;0.40;0.30;;;;;;;4.85;84.16;99241.75;5049961;28;20857;-72
2022/01/05 09:29:44;;;;;;;0.40;0.30;;;;;;;4.88;83.86;99235.81;5049925;28;20462;-71
2022/01/05 09:32:11;;;;;;;0.40;0.30;;;;;;;4.95;83.10;99250.41;5050246;28;20491;-71
2022/01/05 09:34:38;;;;;;;0.40;0.30;;;;;;;4.96;81.98;99251.22;5049794;28;21014;-71
2022/01/05 09:37:11;;;;;;;0.40;0.30;;;;;;;5.04;81.83;99247.81;5050153;28;20518;-73
2022/01/05 09:42:22;;;;;;;0.40;0.20;;;;;;;5.12;80.10;99244.47;5049751;28;20775;-72
2022/01/05 09:44:52;;;;;;;0.40;0.30;;;;;;;5.08;79.89;99246.16;5050649;28;20445;-71
2022/01/05 09:47:47;;;;;;;0.40;0.27;;;;;;;5.03;80.56;99251.63;5053371;28;20438;-73
2022/01/05 09:50:15;;;;;;;0.40;0.23;;;;;;;5.01;78.86;99257.28;5052190;28;20450;-70
2022/01/05 09:52:44;;;;;;;0.40;0.20;;;;;;;5.01;79.46;99256.50;5053429;28;20514;-70
2022/01/05 09:55:12;;;;;;;0.40;0.30;;;;;;;4.98;78.68;99257.88;5053643;28;20890;-70
2022/01/05 09:57:40;;;;;;;0.40;0.20;;;;;;;5.04;78.96;99253.19;5053483;28;20859;-70
2022/01/05 10:00:11;;;;;;;0.40;0.30;;;;;;;5.07;81.38;99250.72;5053449;28;20550;-70
2022/01/05 10:02:37;;;;;;;0.40;0.30;;;;;;;5.20;79.89;99264.44;5053352;28;20488;-70
2022/01/05 10:05:05;;;;;;;0.40;0.30;;;;;;;5.36;79.23;99262.25;5053392;28;20848;-70
2022/01/05 10:07:32;;;;;;;0.40;0.30;;;;;;;5.41;78.91;99259.47;5053239;28;20442;-70
2022/01/05 10:09:58;;;;;;;0.40;0.30;;;;;;;5.44;79.66;99259.66;5053312;28;20445;-70
2022/01/05 10:12:25;;;;;;;0.40;0.30;;;;;;;5.50;78.49;99268.44;5053171;28;20466;-69
2022/01/05 10:14:51;;;;;;;0.40;0.30;;;;;;;5.49;77.07;99266.81;5053167;28;20481;-72
2022/01/05 10:17:24;;;;;;;0.40;0.30;;;;;;;5.45;77.90;99261.28;5052766;28;20819;-74
2022/01/05 10:19:56;;;;;;;0.40;0.30;;;;;;;5.44;78.73;99262.34;5052907;28;20930;-74
2022/01/05 10:22:32;;;;;;;0.40;0.30;;;;;;;5.47;78.61;99264.44;5053098;28;20418;-74
2022/01/05 10:25:00;;;;;;;0.40;0.30;;;;;;;5.46;77.73;99254.81;5053102;28;20422;-75
2022/01/05 10:27:29;;;;;;;0.40;0.20;;;;;;;5.54;78.28;99261.38;5052833;28;20442;-75
2022/01/05 10:29:57;;;;;;;0.40;0.20;;;;;;;5.54;77.31;99258.69;5053009;28;20448;-74
2022/01/05 10:32:27;;;;;;;0.40;0.30;;;;;;;5.57;77.18;99260.75;5052576;28;20939;-74
2022/01/05 10:35:11;;;;;;;0.40;0.30;;;;;;;5.59;78.15;99268.53;5052850;28;20493;-74
2022/01/05 10:37:40;;;;;;;0.40;0.27;;;;;;;5.57;78.08;99264.22;5052879;28;20426;-73
2022/01/05 10:40:09;;;;;;;0.40;0.30;;;;;;;5.61;77.84;99267.09;5052662;28;20446;-74
2022/01/05 10:42:37;;;;;;;0.40;0.30;;;;;;;5.61;77.08;99269.78;5052773;28;20466;-74
2022/01/05 10:45:06;;;;;;;0.40;0.30;;;;;;;5.64;76.18;99269.19;5052800;28;20437;-75
2022/01/05 10:47:34;;;;;;;0.40;0.30;;;;;;;5.61;75.97;99264.44;5052753;28;20442;-74
2022/01/05 10:50:01;;;;;;;0.40;0.30;;;;;;;5.60;76.34;99268.22;5052714;28;20442;-74
2022/01/05 10:52:29;;;;;;;0.40;0.30;;;;;;;5.56;75.97;99257.28;5052607;28;20455;-76
2022/01/05 10:55:10;;;;;;;0.40;0.30;;;;;;;5.53;75.27;99251.69;5052599;28;20486;-75
2022/01/05 10:57:36;;;;;;;0.40;0.30;;;;;;;5.52;75.77;99244.75;5051897;28;20501;-73
2022/01/05 11:00:06;;;;;;;0.40;0.30;;;;;;;5.55;76.15;99246.84;5052225;28;20938;-74
2022/01/05 11:02:36;;;;;;;0.40;0.30;;;;;;;5.57;74.45;99250.00;5052444;28;20466;-74
2022/01/05 11:05:14;;;;;;;1.43;1.33;;;;;;;5.60;74.71;99244.03;5052520;28;20517;-74
2022/01/05 11:07:46;;;;;;;0.40;0.30;;;;;;;5.65;75.25;99257.34;5052308;28;20415;-74
2022/01/05 11:10:15;;;;;;;0.40;0.20;;;;;;;5.71;75.57;99249.97;5052954;27;20557;-74
2022/01/05 11:12:43;;;;;;;0.40;0.30;;;;;;;5.74;75.22;99254.75;5052345;28;20458;-74
2022/01/05 11:15:28;;;;;;;0.40;0.27;;;;;;;5.77;76.12;99241.53;5052215;28;20486;-75
2022/01/05 11:18:14;;;;;;;0.40;0.23;;;;;;;5.79;75.89;99233.16;5052370;28;20418;-74
2022/01/05 11:20:44;;;;;;;0.40;0.20;;;;;;;5.86;75.11;99240.81;5052378;28;20522;-74
2022/01/05 11:23:11;;;;;;;0.40;0.20;;;;;;;5.91;73.97;99232.63;5052161;28;20484;-74
2022/01/05 11:25:39;;;;;;;0.40;0.30;;;;;;;5.97;74.09;99242.97;5052161;28;20442;-74
2022/01/05 11:28:07;;;;;;;0.40;0.30;;;;;;;5.96;73.35;99237.91;5052065;28;20450;-74
2022/01/05 11:30:35;;;;;;;0.40;0.30;;;;;;;5.99;73.23;99246.16;5052098;28;20442;-74
2022/01/05 11:33:02;;;;;;;0.40;0.27;;;;;;;5.92;72.89;99251.16;5051704;28;20997;-74
2022/01/05 11:35:30;;;;;;;0.40;0.30;;;;;;;5.92;73.41;99240.41;5052025;28;20490;-74
2022/01/05 11:37:57;;;;;;;0.40;0.30;;;;;;;5.93;74.04;99238.50;5052094;28;20451;-74
2022/01/05 11:40:23;;;;;;;0.40;0.20;;;;;;;5.86;73.79;99244.28;5052054;28;20565;-74
2022/01/05 11:42:52;;;;;;;0.40;0.20;;;;;;;5.85;74.63;99231.16;5051598;28;20465;-74